sensor_id;sensor_type;location;lat;lon;timestamp;P1;durP1;ratioP1;P2;durP2;ratioP2
13083;SDS011;6608;48.790;9.198;2023-05-07T00:00:26;173.77;;;66.37;;
13083;SDS011;6608;48.790;9.198;2023-05-07T00:02:54;170.70;;;66.93;;
13083;SDS011;6608;48.790;9.198;2023-05-07T00:05:20;170.87;;;66.90;;
13083;SDS011;6608;48.790;9.198;2023-05-07T00:07:46;166.77;;;66.23;;
13083;SDS011;6608;48.790;9.198;2023-05-07T00:10:13;170.53;;;67.40;;
13083;SDS011;6608;48.790;9.198;2023-05-07T00:12:40;170.20;;;67.00;;
13083;SDS011;6608;48.790;9.198;2023-05-07T00:15:07;167.20;;;65.97;;
13083;SDS011;6608;48.790;9.198;2023-05-07T00:17:33;168.53;;;65.60;;
13083;SDS011;6608;48.790;9.198;2023-05-07T00:20:01;168.03;;;66.37;;
13083;SDS011;6608;48.790;9.198;2023-05-07T00:22:28;169.17;;;66.20;;
13083;SDS011;6608;48.790;9.198;2023-05-07T00:24:55;174.13;;;66.57;;
13083;SDS011;6608;48.790;9.198;2023-05-07T00:27:21;167.20;;;66.30;;
13083;SDS011;6608;48.790;9.198;2023-05-07T00:29:48;169.23;;;66.83;;
13083;SDS011;6608;48.790;9.198;2023-05-07T00:32:14;167.33;;;66.40;;
13083;SDS011;6608;48.790;9.198;2023-05-07T00:34:40;167.57;;;66.50;;
13083;SDS011;6608;48.790;9.198;2023-05-07T00:37:08;167.67;;;66.50;;
13083;SDS011;6608;48.790;9.198;2023-05-07T00:39:35;168.00;;;66.20;;
13083;SDS011;6608;48.790;9.198;2023-05-07T00:42:01;171.83;;;66.10;;
13083;SDS011;6608;48.790;9.198;2023-05-07T00:44:28;171.17;;;66.70;;
13083;SDS011;6608;48.790;9.198;2023-05-07T00:46:55;168.43;;;65.97;;
13083;SDS011;6608;48.790;9.198;2023-05-07T00:49:23;173.27;;;65.93;;
13083;SDS011;6608;48.790;9.198;2023-05-07T00:51:50;167.80;;;65.70;;
13083;SDS011;6608;48.790;9.198;2023-05-07T00:54:18;167.00;;;64.90;;
13083;SDS011;6608;48.790;9.198;2023-05-07T00:56:45;167.90;;;65.70;;
13083;SDS011;6608;48.790;9.198;2023-05-07T00:59:11;168.83;;;64.93;;
13083;SDS011;6608;48.790;9.198;2023-05-07T01:01:38;167.63;;;65.33;;
13083;SDS011;6608;48.790;9.198;2023-05-07T01:04:04;168.67;;;66.30;;
13083;SDS011;6608;48.790;9.198;2023-05-07T01:06:31;169.80;;;66.30;;
13083;SDS011;6608;48.790;9.198;2023-05-07T01:08:58;168.07;;;65.80;;
13083;SDS011;6608;48.790;9.198;2023-05-07T01:11:26;170.87;;;66.37;;
13083;SDS011;6608;48.790;9.198;2023-05-07T01:13:52;166.17;;;64.63;;
13083;SDS011;6608;48.790;9.198;2023-05-07T01:16:19;167.77;;;65.67;;
13083;SDS011;6608;48.790;9.198;2023-05-07T01:18:45;167.37;;;65.57;;
13083;SDS011;6608;48.790;9.198;2023-05-07T01:21:13;169.03;;;66.10;;
13083;SDS011;6608;48.790;9.198;2023-05-07T01:23:43;165.87;;;65.47;;
13083;SDS011;6608;48.790;9.198;2023-05-07T01:26:10;168.27;;;65.67;;
13083;SDS011;6608;48.790;9.198;2023-05-07T01:28:36;168.93;;;65.10;;
13083;SDS011;6608;48.790;9.198;2023-05-07T01:31:03;166.63;;;65.63;;
13083;SDS011;6608;48.790;9.198;2023-05-07T01:33:31;171.77;;;65.90;;
13083;SDS011;6608;48.790;9.198;2023-05-07T01:35:59;169.70;;;66.47;;
13083;SDS011;6608;48.790;9.198;2023-05-07T01:38:28;168.50;;;65.67;;
13083;SDS011;6608;48.790;9.198;2023-05-07T01:40:57;172.17;;;65.53;;
13083;SDS011;6608;48.790;9.198;2023-05-07T01:43:23;168.53;;;65.27;;
13083;SDS011;6608;48.790;9.198;2023-05-07T01:45:50;168.30;;;65.60;;
13083;SDS011;6608;48.790;9.198;2023-05-07T01:48:17;172.73;;;65.30;;
13083;SDS011;6608;48.790;9.198;2023-05-07T01:50:44;176.23;;;65.93;;
13083;SDS011;6608;48.790;9.198;2023-05-07T01:53:10;168.70;;;65.63;;
13083;SDS011;6608;48.790;9.198;2023-05-07T01:55:37;168.93;;;65.33;;
13083;SDS011;6608;48.790;9.198;2023-05-07T01:58:04;167.23;;;65.77;;
13083;SDS011;6608;48.790;9.198;2023-05-07T02:00:31;168.03;;;66.27;;
13083;SDS011;6608;48.790;9.198;2023-05-07T02:02:57;165.47;;;64.57;;
13083;SDS011;6608;48.790;9.198;2023-05-07T02:05:24;168.10;;;66.50;;
13083;SDS011;6608;48.790;9.198;2023-05-07T02:07:50;170.87;;;66.50;;
13083;SDS011;6608;48.790;9.198;2023-05-07T02:10:16;169.17;;;66.27;;
13083;SDS011;6608;48.790;9.198;2023-05-07T02:12:43;178.23;;;66.83;;
13083;SDS011;6608;48.790;9.198;2023-05-07T02:15:11;170.93;;;65.80;;
13083;SDS011;6608;48.790;9.198;2023-05-07T02:17:39;165.43;;;65.53;;
13083;SDS011;6608;48.790;9.198;2023-05-07T02:20:06;166.77;;;65.50;;
13083;SDS011;6608;48.790;9.198;2023-05-07T02:22:38;168.43;;;65.30;;
13083;SDS011;6608;48.790;9.198;2023-05-07T02:25:04;166.60;;;65.90;;
13083;SDS011;6608;48.790;9.198;2023-05-07T02:27:31;170.67;;;65.50;;
13083;SDS011;6608;48.790;9.198;2023-05-07T02:29:57;165.83;;;64.67;;
13083;SDS011;6608;48.790;9.198;2023-05-07T02:32:25;166.27;;;65.20;;
13083;SDS011;6608;48.790;9.198;2023-05-07T02:34:51;166.70;;;66.43;;
13083;SDS011;6608;48.790;9.198;2023-05-07T02:37:18;168.13;;;66.83;;
13083;SDS011;6608;48.790;9.198;2023-05-07T02:39:45;166.53;;;65.70;;
13083;SDS011;6608;48.790;9.198;2023-05-07T02:42:11;166.77;;;65.60;;
13083;SDS011;6608;48.790;9.198;2023-05-07T02:44:37;166.30;;;65.83;;
13083;SDS011;6608;48.790;9.198;2023-05-07T02:47:04;165.63;;;64.47;;
13083;SDS011;6608;48.790;9.198;2023-05-07T02:49:34;167.03;;;65.37;;
13083;SDS011;6608;48.790;9.198;2023-05-07T02:52:01;165.93;;;66.27;;
13083;SDS011;6608;48.790;9.198;2023-05-07T02:54:27;165.27;;;64.97;;
13083;SDS011;6608;48.790;9.198;2023-05-07T02:56:53;163.77;;;63.03;;
13083;SDS011;6608;48.790;9.198;2023-05-07T02:59:20;167.43;;;64.80;;
13083;SDS011;6608;48.790;9.198;2023-05-07T03:01:46;168.47;;;64.80;;
13083;SDS011;6608;48.790;9.198;2023-05-07T03:04:13;168.07;;;65.43;;
13083;SDS011;6608;48.790;9.198;2023-05-07T03:06:41;163.67;;;63.77;;
13083;SDS011;6608;48.790;9.198;2023-05-07T03:09:07;167.27;;;65.27;;
13083;SDS011;6608;48.790;9.198;2023-05-07T03:11:33;165.07;;;65.33;;
13083;SDS011;6608;48.790;9.198;2023-05-07T03:14:00;174.03;;;65.67;;
13083;SDS011;6608;48.790;9.198;2023-05-07T03:16:27;167.57;;;64.80;;
13083;SDS011;6608;48.790;9.198;2023-05-07T03:18:53;165.83;;;65.00;;
13083;SDS011;6608;48.790;9.198;2023-05-07T03:21:19;177.37;;;66.47;;
13083;SDS011;6608;48.790;9.198;2023-05-07T03:23:47;165.60;;;65.17;;
13083;SDS011;6608;48.790;9.198;2023-05-07T03:26:13;164.83;;;64.17;;
13083;SDS011;6608;48.790;9.198;2023-05-07T03:28:40;168.93;;;65.50;;
13083;SDS011;6608;48.790;9.198;2023-05-07T03:31:06;164.37;;;64.17;;
13083;SDS011;6608;48.790;9.198;2023-05-07T03:33:33;164.20;;;63.87;;
13083;SDS011;6608;48.790;9.198;2023-05-07T03:35:59;160.93;;;63.13;;
13083;SDS011;6608;48.790;9.198;2023-05-07T03:38:25;164.93;;;64.90;;
13083;SDS011;6608;48.790;9.198;2023-05-07T03:40:53;166.80;;;64.23;;
13083;SDS011;6608;48.790;9.198;2023-05-07T03:43:19;162.47;;;63.83;;
13083;SDS011;6608;48.790;9.198;2023-05-07T03:45:46;164.90;;;63.47;;
13083;SDS011;6608;48.790;9.198;2023-05-07T03:48:12;162.60;;;64.47;;
13083;SDS011;6608;48.790;9.198;2023-05-07T03:50:39;165.93;;;64.20;;
13083;SDS011;6608;48.790;9.198;2023-05-07T03:53:05;166.00;;;64.80;;
13083;SDS011;6608;48.790;9.198;2023-05-07T03:55:32;165.27;;;64.53;;
13083;SDS011;6608;48.790;9.198;2023-05-07T03:57:59;173.10;;;64.90;;
13083;SDS011;6608;48.790;9.198;2023-05-07T04:00:26;175.33;;;65.03;;
13083;SDS011;6608;48.790;9.198;2023-05-07T04:02:52;167.87;;;64.70;;
13083;SDS011;6608;48.790;9.198;2023-05-07T04:05:19;166.73;;;64.83;;
13083;SDS011;6608;48.790;9.198;2023-05-07T04:07:45;165.37;;;63.90;;
13083;SDS011;6608;48.790;9.198;2023-05-07T04:10:11;161.03;;;64.50;;
13083;SDS011;6608;48.790;9.198;2023-05-07T04:12:38;165.70;;;64.90;;
13083;SDS011;6608;48.790;9.198;2023-05-07T04:15:07;160.17;;;64.87;;
13083;SDS011;6608;48.790;9.198;2023-05-07T04:17:33;163.07;;;64.23;;
13083;SDS011;6608;48.790;9.198;2023-05-07T04:20:00;163.47;;;65.63;;
13083;SDS011;6608;48.790;9.198;2023-05-07T04:22:26;166.30;;;65.23;;
13083;SDS011;6608;48.790;9.198;2023-05-07T04:24:52;159.37;;;63.53;;
13083;SDS011;6608;48.790;9.198;2023-05-07T04:27:19;159.97;;;63.47;;
13083;SDS011;6608;48.790;9.198;2023-05-07T04:29:45;162.30;;;64.37;;
13083;SDS011;6608;48.790;9.198;2023-05-07T04:32:13;160.73;;;63.40;;
13083;SDS011;6608;48.790;9.198;2023-05-07T04:34:40;161.63;;;64.00;;
13083;SDS011;6608;48.790;9.198;2023-05-07T04:37:06;158.67;;;63.83;;
13083;SDS011;6608;48.790;9.198;2023-05-07T04:39:32;163.47;;;64.20;;
13083;SDS011;6608;48.790;9.198;2023-05-07T04:42:00;162.80;;;64.10;;
13083;SDS011;6608;48.790;9.198;2023-05-07T04:44:26;164.67;;;64.17;;
13083;SDS011;6608;48.790;9.198;2023-05-07T04:46:53;164.13;;;65.47;;
13083;SDS011;6608;48.790;9.198;2023-05-07T04:49:20;158.33;;;63.03;;
13083;SDS011;6608;48.790;9.198;2023-05-07T04:51:47;164.67;;;63.73;;
13083;SDS011;6608;48.790;9.198;2023-05-07T04:54:13;163.23;;;64.83;;
13083;SDS011;6608;48.790;9.198;2023-05-07T04:56:39;162.50;;;64.50;;
13083;SDS011;6608;48.790;9.198;2023-05-07T04:59:06;158.87;;;64.10;;
13083;SDS011;6608;48.790;9.198;2023-05-07T05:01:32;159.97;;;63.97;;
13083;SDS011;6608;48.790;9.198;2023-05-07T05:03:59;164.20;;;65.07;;
13083;SDS011;6608;48.790;9.198;2023-05-07T05:06:28;159.77;;;63.00;;
13083;SDS011;6608;48.790;9.198;2023-05-07T05:08:55;158.07;;;63.90;;
13083;SDS011;6608;48.790;9.198;2023-05-07T05:11:21;159.53;;;64.20;;
13083;SDS011;6608;48.790;9.198;2023-05-07T05:13:48;159.87;;;63.70;;
13083;SDS011;6608;48.790;9.198;2023-05-07T05:16:15;158.07;;;63.27;;
13083;SDS011;6608;48.790;9.198;2023-05-07T05:18:41;162.17;;;65.23;;
13083;SDS011;6608;48.790;9.198;2023-05-07T05:21:07;157.80;;;63.90;;
13083;SDS011;6608;48.790;9.198;2023-05-07T05:23:35;162.10;;;63.60;;
13083;SDS011;6608;48.790;9.198;2023-05-07T05:26:02;161.03;;;64.30;;
13083;SDS011;6608;48.790;9.198;2023-05-07T05:28:28;161.80;;;64.90;;
13083;SDS011;6608;48.790;9.198;2023-05-07T05:30:55;159.53;;;64.90;;
13083;SDS011;6608;48.790;9.198;2023-05-07T05:33:21;158.43;;;63.57;;
13083;SDS011;6608;48.790;9.198;2023-05-07T05:35:47;165.70;;;65.63;;
13083;SDS011;6608;48.790;9.198;2023-05-07T05:38:14;160.83;;;65.17;;
13083;SDS011;6608;48.790;9.198;2023-05-07T05:40:41;165.33;;;64.93;;
13083;SDS011;6608;48.790;9.198;2023-05-07T05:43:08;165.13;;;65.03;;
13083;SDS011;6608;48.790;9.198;2023-05-07T05:45:34;165.03;;;65.50;;
13083;SDS011;6608;48.790;9.198;2023-05-07T05:48:00;163.30;;;65.33;;
13083;SDS011;6608;48.790;9.198;2023-05-07T05:50:27;161.40;;;64.67;;
13083;SDS011;6608;48.790;9.198;2023-05-07T05:52:53;164.10;;;64.77;;
13083;SDS011;6608;48.790;9.198;2023-05-07T05:55:20;161.87;;;64.57;;
13083;SDS011;6608;48.790;9.198;2023-05-07T05:57:48;163.33;;;65.33;;
13083;SDS011;6608;48.790;9.198;2023-05-07T06:00:15;163.90;;;66.07;;
13083;SDS011;6608;48.790;9.198;2023-05-07T06:02:41;164.40;;;66.23;;
13083;SDS011;6608;48.790;9.198;2023-05-07T06:05:08;163.33;;;66.53;;
13083;SDS011;6608;48.790;9.198;2023-05-07T06:07:35;164.30;;;66.20;;
13083;SDS011;6608;48.790;9.198;2023-05-07T06:10:01;168.67;;;67.17;;
13083;SDS011;6608;48.790;9.198;2023-05-07T06:12:28;169.90;;;68.13;;
13083;SDS011;6608;48.790;9.198;2023-05-07T06:14:55;169.37;;;67.97;;
13083;SDS011;6608;48.790;9.198;2023-05-07T06:17:22;171.77;;;67.90;;
13083;SDS011;6608;48.790;9.198;2023-05-07T06:19:48;169.10;;;68.30;;
13083;SDS011;6608;48.790;9.198;2023-05-07T06:22:15;169.03;;;68.43;;
13083;SDS011;6608;48.790;9.198;2023-05-07T06:24:41;171.73;;;68.70;;
13083;SDS011;6608;48.790;9.198;2023-05-07T06:27:08;167.87;;;68.10;;
13083;SDS011;6608;48.790;9.198;2023-05-07T06:29:34;167.60;;;67.33;;
13083;SDS011;6608;48.790;9.198;2023-05-07T06:32:08;168.23;;;67.80;;
13083;SDS011;6608;48.790;9.198;2023-05-07T06:34:34;167.37;;;67.43;;
13083;SDS011;6608;48.790;9.198;2023-05-07T06:37:01;167.10;;;68.07;;
13083;SDS011;6608;48.790;9.198;2023-05-07T06:39:27;168.50;;;68.33;;
13083;SDS011;6608;48.790;9.198;2023-05-07T06:41:54;166.50;;;67.10;;
13083;SDS011;6608;48.790;9.198;2023-05-07T06:44:20;169.83;;;68.07;;
13083;SDS011;6608;48.790;9.198;2023-05-07T06:46:46;172.17;;;67.93;;
13083;SDS011;6608;48.790;9.198;2023-05-07T06:49:14;169.47;;;67.33;;
13083;SDS011;6608;48.790;9.198;2023-05-07T06:51:41;168.90;;;67.87;;
13083;SDS011;6608;48.790;9.198;2023-05-07T06:54:07;171.97;;;69.10;;
13083;SDS011;6608;48.790;9.198;2023-05-07T06:56:33;171.47;;;66.07;;
13083;SDS011;6608;48.790;9.198;2023-05-07T06:59:00;172.30;;;69.93;;
13083;SDS011;6608;48.790;9.198;2023-05-07T07:01:27;171.63;;;68.70;;
13083;SDS011;6608;48.790;9.198;2023-05-07T07:03:54;175.70;;;70.13;;
13083;SDS011;6608;48.790;9.198;2023-05-07T07:06:22;173.83;;;69.20;;
13083;SDS011;6608;48.790;9.198;2023-05-07T07:08:48;174.13;;;69.77;;
13083;SDS011;6608;48.790;9.198;2023-05-07T07:11:15;175.50;;;70.03;;
13083;SDS011;6608;48.790;9.198;2023-05-07T07:13:41;174.40;;;69.37;;
13083;SDS011;6608;48.790;9.198;2023-05-07T07:16:08;186.30;;;70.73;;
13083;SDS011;6608;48.790;9.198;2023-05-07T07:18:34;183.07;;;70.73;;
13083;SDS011;6608;48.790;9.198;2023-05-07T07:21:00;179.33;;;71.13;;
13083;SDS011;6608;48.790;9.198;2023-05-07T07:23:28;181.37;;;71.70;;
13083;SDS011;6608;48.790;9.198;2023-05-07T07:25:55;179.37;;;70.77;;
13083;SDS011;6608;48.790;9.198;2023-05-07T07:28:21;179.13;;;70.23;;
13083;SDS011;6608;48.790;9.198;2023-05-07T07:30:47;183.40;;;72.07;;
13083;SDS011;6608;48.790;9.198;2023-05-07T07:33:14;183.30;;;73.20;;
13083;SDS011;6608;48.790;9.198;2023-05-07T07:35:41;181.17;;;71.20;;
13083;SDS011;6608;48.790;9.198;2023-05-07T07:38:07;183.53;;;72.50;;
13083;SDS011;6608;48.790;9.198;2023-05-07T07:40:35;182.13;;;71.17;;
13083;SDS011;6608;48.790;9.198;2023-05-07T07:43:02;181.17;;;71.90;;
13083;SDS011;6608;48.790;9.198;2023-05-07T07:45:28;182.43;;;71.10;;
13083;SDS011;6608;48.790;9.198;2023-05-07T07:47:55;185.93;;;72.67;;
13083;SDS011;6608;48.790;9.198;2023-05-07T07:50:21;185.20;;;72.37;;
13083;SDS011;6608;48.790;9.198;2023-05-07T07:52:47;182.17;;;71.53;;
13083;SDS011;6608;48.790;9.198;2023-05-07T07:55:14;180.87;;;71.27;;
13083;SDS011;6608;48.790;9.198;2023-05-07T07:57:44;181.43;;;71.87;;
13083;SDS011;6608;48.790;9.198;2023-05-07T08:00:11;186.93;;;71.83;;
13083;SDS011;6608;48.790;9.198;2023-05-07T08:02:38;182.53;;;72.60;;
13083;SDS011;6608;48.790;9.198;2023-05-07T08:05:04;180.97;;;70.10;;
13083;SDS011;6608;48.790;9.198;2023-05-07T08:07:30;181.07;;;70.83;;
13083;SDS011;6608;48.790;9.198;2023-05-07T08:09:57;184.33;;;71.20;;
13083;SDS011;6608;48.790;9.198;2023-05-07T08:12:23;181.73;;;71.03;;
13083;SDS011;6608;48.790;9.198;2023-05-07T08:14:51;180.20;;;71.27;;
13083;SDS011;6608;48.790;9.198;2023-05-07T08:17:17;181.50;;;71.20;;
13083;SDS011;6608;48.790;9.198;2023-05-07T08:19:44;180.20;;;70.40;;
13083;SDS011;6608;48.790;9.198;2023-05-07T08:22:10;182.47;;;71.17;;
13083;SDS011;6608;48.790;9.198;2023-05-07T08:24:36;179.90;;;71.27;;
13083;SDS011;6608;48.790;9.198;2023-05-07T08:27:03;182.07;;;71.87;;
13083;SDS011;6608;48.790;9.198;2023-05-07T08:29:29;179.70;;;71.43;;
13083;SDS011;6608;48.790;9.198;2023-05-07T08:31:57;181.73;;;70.90;;
13083;SDS011;6608;48.790;9.198;2023-05-07T08:34:23;182.87;;;72.17;;
13083;SDS011;6608;48.790;9.198;2023-05-07T08:36:50;181.83;;;71.30;;
13083;SDS011;6608;48.790;9.198;2023-05-07T08:39:16;182.47;;;71.60;;
13083;SDS011;6608;48.790;9.198;2023-05-07T08:41:43;182.13;;;71.77;;
13083;SDS011;6608;48.790;9.198;2023-05-07T08:44:11;182.43;;;71.47;;
13083;SDS011;6608;48.790;9.198;2023-05-07T08:46:38;181.80;;;71.73;;
13083;SDS011;6608;48.790;9.198;2023-05-07T08:49:06;182.97;;;71.93;;
13083;SDS011;6608;48.790;9.198;2023-05-07T08:51:33;184.43;;;72.20;;
13083;SDS011;6608;48.790;9.198;2023-05-07T08:54:00;184.60;;;72.40;;
13083;SDS011;6608;48.790;9.198;2023-05-07T08:56:27;183.13;;;71.80;;
13083;SDS011;6608;48.790;9.198;2023-05-07T08:58:53;182.97;;;71.67;;
13083;SDS011;6608;48.790;9.198;2023-05-07T09:01:21;184.17;;;74.43;;
13083;SDS011;6608;48.790;9.198;2023-05-07T09:03:49;183.27;;;72.47;;
13083;SDS011;6608;48.790;9.198;2023-05-07T09:06:17;183.07;;;72.43;;
13083;SDS011;6608;48.790;9.198;2023-05-07T09:08:45;184.83;;;72.90;;
13083;SDS011;6608;48.790;9.198;2023-05-07T09:11:15;185.73;;;73.07;;
13083;SDS011;6608;48.790;9.198;2023-05-07T09:13:42;185.90;;;73.13;;
13083;SDS011;6608;48.790;9.198;2023-05-07T09:16:12;183.37;;;72.47;;
13083;SDS011;6608;48.790;9.198;2023-05-07T09:18:42;184.60;;;73.90;;
13083;SDS011;6608;48.790;9.198;2023-05-07T09:21:09;183.93;;;73.67;;
13083;SDS011;6608;48.790;9.198;2023-05-07T09:23:37;186.73;;;73.77;;
13083;SDS011;6608;48.790;9.198;2023-05-07T09:26:03;186.13;;;74.40;;
13083;SDS011;6608;48.790;9.198;2023-05-07T09:28:32;184.53;;;73.57;;
13083;SDS011;6608;48.790;9.198;2023-05-07T09:30:58;183.77;;;72.47;;
13083;SDS011;6608;48.790;9.198;2023-05-07T09:33:26;187.47;;;74.17;;
13083;SDS011;6608;48.790;9.198;2023-05-07T09:35:53;186.17;;;73.50;;
13083;SDS011;6608;48.790;9.198;2023-05-07T09:38:19;185.77;;;73.30;;
13083;SDS011;6608;48.790;9.198;2023-05-07T09:40:52;185.70;;;74.53;;
13083;SDS011;6608;48.790;9.198;2023-05-07T09:43:27;186.37;;;74.70;;
13083;SDS011;6608;48.790;9.198;2023-05-07T09:45:57;185.73;;;74.43;;
13083;SDS011;6608;48.790;9.198;2023-05-07T09:48:24;186.17;;;75.00;;
13083;SDS011;6608;48.790;9.198;2023-05-07T09:50:51;189.07;;;74.30;;
13083;SDS011;6608;48.790;9.198;2023-05-07T09:53:20;184.57;;;74.37;;
13083;SDS011;6608;48.790;9.198;2023-05-07T09:55:48;186.50;;;75.63;;
13083;SDS011;6608;48.790;9.198;2023-05-07T09:58:15;185.43;;;73.03;;
13083;SDS011;6608;48.790;9.198;2023-05-07T10:00:42;186.87;;;75.07;;
13083;SDS011;6608;48.790;9.198;2023-05-07T10:03:09;186.90;;;74.93;;
13083;SDS011;6608;48.790;9.198;2023-05-07T10:05:35;190.07;;;74.37;;
13083;SDS011;6608;48.790;9.198;2023-05-07T10:08:02;188.77;;;74.23;;
13083;SDS011;6608;48.790;9.198;2023-05-07T10:10:29;185.10;;;74.40;;
13083;SDS011;6608;48.790;9.198;2023-05-07T10:12:56;188.87;;;74.73;;
13083;SDS011;6608;48.790;9.198;2023-05-07T10:15:23;187.27;;;75.27;;
13083;SDS011;6608;48.790;9.198;2023-05-07T10:17:50;184.53;;;74.40;;
13083;SDS011;6608;48.790;9.198;2023-05-07T10:20:17;188.40;;;75.50;;
13083;SDS011;6608;48.790;9.198;2023-05-07T10:22:44;186.57;;;75.83;;
13083;SDS011;6608;48.790;9.198;2023-05-07T10:25:14;187.20;;;75.20;;
13083;SDS011;6608;48.790;9.198;2023-05-07T10:27:41;184.63;;;74.23;;
13083;SDS011;6608;48.790;9.198;2023-05-07T10:30:12;184.47;;;75.63;;
13083;SDS011;6608;48.790;9.198;2023-05-07T10:32:40;184.80;;;75.07;;
13083;SDS011;6608;48.790;9.198;2023-05-07T10:35:09;187.03;;;76.10;;
13083;SDS011;6608;48.790;9.198;2023-05-07T10:37:36;188.13;;;74.40;;
13083;SDS011;6608;48.790;9.198;2023-05-07T10:40:03;185.77;;;75.47;;
13083;SDS011;6608;48.790;9.198;2023-05-07T10:42:32;184.80;;;73.53;;
13083;SDS011;6608;48.790;9.198;2023-05-07T10:44:58;188.43;;;74.87;;
13083;SDS011;6608;48.790;9.198;2023-05-07T10:47:38;186.67;;;74.17;;
13083;SDS011;6608;48.790;9.198;2023-05-07T10:50:24;186.13;;;74.03;;
13083;SDS011;6608;48.790;9.198;2023-05-07T10:55:36;186.60;;;74.53;;
13083;SDS011;6608;48.790;9.198;2023-05-07T11:00:43;185.33;;;73.93;;
13083;SDS011;6608;48.790;9.198;2023-05-07T11:03:11;184.03;;;72.80;;
13083;SDS011;6608;48.790;9.198;2023-05-07T11:05:39;186.23;;;73.40;;
13083;SDS011;6608;48.790;9.198;2023-05-07T11:08:06;185.70;;;73.87;;
13083;SDS011;6608;48.790;9.198;2023-05-07T11:10:48;187.23;;;73.77;;
13083;SDS011;6608;48.790;9.198;2023-05-07T11:13:15;184.90;;;73.60;;
13083;SDS011;6608;48.790;9.198;2023-05-07T11:15:42;186.37;;;73.70;;
13083;SDS011;6608;48.790;9.198;2023-05-07T11:18:11;186.30;;;74.37;;
13083;SDS011;6608;48.790;9.198;2023-05-07T11:26:12;186.30;;;74.30;;
13083;SDS011;6608;48.790;9.198;2023-05-07T11:28:39;185.03;;;73.97;;
13083;SDS011;6608;48.790;9.198;2023-05-07T11:31:05;187.73;;;74.33;;
13083;SDS011;6608;48.790;9.198;2023-05-07T11:33:33;185.07;;;73.93;;
13083;SDS011;6608;48.790;9.198;2023-05-07T11:36:00;187.30;;;74.10;;
13083;SDS011;6608;48.790;9.198;2023-05-07T11:38:28;185.17;;;74.40;;
13083;SDS011;6608;48.790;9.198;2023-05-07T11:40:55;187.40;;;73.97;;
13083;SDS011;6608;48.790;9.198;2023-05-07T11:43:22;187.07;;;74.33;;
13083;SDS011;6608;48.790;9.198;2023-05-07T11:45:48;193.93;;;78.73;;
13083;SDS011;6608;48.790;9.198;2023-05-07T11:48:15;187.70;;;74.47;;
13083;SDS011;6608;48.790;9.198;2023-05-07T11:50:51;192.13;;;74.60;;
13083;SDS011;6608;48.790;9.198;2023-05-07T11:53:17;186.77;;;72.80;;
13083;SDS011;6608;48.790;9.198;2023-05-07T11:55:44;186.70;;;72.97;;
13083;SDS011;6608;48.790;9.198;2023-05-07T11:58:12;191.10;;;74.03;;
13083;SDS011;6608;48.790;9.198;2023-05-07T12:00:38;188.87;;;73.07;;
13083;SDS011;6608;48.790;9.198;2023-05-07T12:03:05;196.37;;;74.10;;
13083;SDS011;6608;48.790;9.198;2023-05-07T12:05:31;190.90;;;72.77;;
13083;SDS011;6608;48.790;9.198;2023-05-07T12:07:59;193.93;;;75.03;;
13083;SDS011;6608;48.790;9.198;2023-05-07T12:10:26;193.63;;;75.07;;
13083;SDS011;6608;48.790;9.198;2023-05-07T12:12:52;196.80;;;74.87;;
13083;SDS011;6608;48.790;9.198;2023-05-07T12:15:22;200.93;;;73.80;;
13083;SDS011;6608;48.790;9.198;2023-05-07T12:17:48;206.60;;;75.57;;
13083;SDS011;6608;48.790;9.198;2023-05-07T12:20:15;189.10;;;73.77;;
13083;SDS011;6608;48.790;9.198;2023-05-07T12:22:42;189.63;;;73.57;;
13083;SDS011;6608;48.790;9.198;2023-05-07T12:25:10;191.13;;;73.93;;
13083;SDS011;6608;48.790;9.198;2023-05-07T12:27:40;189.30;;;72.33;;
13083;SDS011;6608;48.790;9.198;2023-05-07T12:30:08;193.53;;;73.57;;
13083;SDS011;6608;48.790;9.198;2023-05-07T12:32:35;191.63;;;71.50;;
13083;SDS011;6608;48.790;9.198;2023-05-07T12:35:02;193.93;;;73.67;;
13083;SDS011;6608;48.790;9.198;2023-05-07T12:37:28;194.83;;;72.17;;
13083;SDS011;6608;48.790;9.198;2023-05-07T12:40:04;191.73;;;72.90;;
13083;SDS011;6608;48.790;9.198;2023-05-07T12:42:34;189.53;;;71.20;;
13083;SDS011;6608;48.790;9.198;2023-05-07T12:45:07;189.13;;;70.60;;
13083;SDS011;6608;48.790;9.198;2023-05-07T12:47:33;188.70;;;70.63;;
13083;SDS011;6608;48.790;9.198;2023-05-07T12:50:00;188.57;;;71.70;;
13083;SDS011;6608;48.790;9.198;2023-05-07T12:52:26;188.67;;;70.97;;
13083;SDS011;6608;48.790;9.198;2023-05-07T12:54:54;192.63;;;69.43;;
13083;SDS011;6608;48.790;9.198;2023-05-07T12:57:20;186.33;;;70.57;;
13083;SDS011;6608;48.790;9.198;2023-05-07T12:59:48;188.73;;;71.20;;
13083;SDS011;6608;48.790;9.198;2023-05-07T13:02:14;185.10;;;67.90;;
13083;SDS011;6608;48.790;9.198;2023-05-07T13:04:40;187.00;;;67.57;;
13083;SDS011;6608;48.790;9.198;2023-05-07T13:07:07;183.07;;;67.80;;
13083;SDS011;6608;48.790;9.198;2023-05-07T13:09:33;183.63;;;65.93;;
13083;SDS011;6608;48.790;9.198;2023-05-07T13:12:02;194.17;;;67.87;;
13083;SDS011;6608;48.790;9.198;2023-05-07T13:14:28;191.50;;;67.57;;
13083;SDS011;6608;48.790;9.198;2023-05-07T13:16:56;181.43;;;68.33;;
13083;SDS011;6608;48.790;9.198;2023-05-07T13:19:23;208.70;;;67.37;;
13083;SDS011;6608;48.790;9.198;2023-05-07T13:21:49;179.57;;;67.13;;
13083;SDS011;6608;48.790;9.198;2023-05-07T13:24:15;181.53;;;67.00;;
13083;SDS011;6608;48.790;9.198;2023-05-07T13:26:42;178.90;;;66.13;;
13083;SDS011;6608;48.790;9.198;2023-05-07T13:29:08;177.83;;;66.77;;
13083;SDS011;6608;48.790;9.198;2023-05-07T13:31:34;180.93;;;66.40;;
13083;SDS011;6608;48.790;9.198;2023-05-07T13:34:02;176.13;;;66.00;;
13083;SDS011;6608;48.790;9.198;2023-05-07T13:36:29;174.97;;;66.33;;
13083;SDS011;6608;48.790;9.198;2023-05-07T13:38:58;175.67;;;65.87;;
13083;SDS011;6608;48.790;9.198;2023-05-07T13:41:25;176.00;;;65.43;;
13083;SDS011;6608;48.790;9.198;2023-05-07T13:43:51;175.00;;;64.80;;
13083;SDS011;6608;48.790;9.198;2023-05-07T13:46:18;173.17;;;66.00;;
13083;SDS011;6608;48.790;9.198;2023-05-07T13:48:44;174.17;;;67.43;;
13083;SDS011;6608;48.790;9.198;2023-05-07T13:51:12;173.13;;;65.20;;
13083;SDS011;6608;48.790;9.198;2023-05-07T13:53:38;172.03;;;64.73;;
13083;SDS011;6608;48.790;9.198;2023-05-07T13:56:05;172.10;;;65.43;;
13083;SDS011;6608;48.790;9.198;2023-05-07T13:58:31;176.97;;;65.53;;
13083;SDS011;6608;48.790;9.198;2023-05-07T14:00:58;173.23;;;66.60;;
13083;SDS011;6608;48.790;9.198;2023-05-07T14:03:24;174.03;;;66.87;;
13083;SDS011;6608;48.790;9.198;2023-05-07T14:05:51;172.17;;;65.03;;
13083;SDS011;6608;48.790;9.198;2023-05-07T14:08:18;172.43;;;65.93;;
13083;SDS011;6608;48.790;9.198;2023-05-07T14:10:45;173.43;;;65.43;;
13083;SDS011;6608;48.790;9.198;2023-05-07T14:13:12;173.40;;;67.20;;
13083;SDS011;6608;48.790;9.198;2023-05-07T14:15:38;174.47;;;65.73;;
13083;SDS011;6608;48.790;9.198;2023-05-07T14:18:05;173.57;;;66.07;;
13083;SDS011;6608;48.790;9.198;2023-05-07T14:20:31;170.73;;;65.67;;
13083;SDS011;6608;48.790;9.198;2023-05-07T14:22:58;172.20;;;66.53;;
13083;SDS011;6608;48.790;9.198;2023-05-07T14:25:26;171.30;;;65.60;;
13083;SDS011;6608;48.790;9.198;2023-05-07T14:27:52;171.73;;;66.93;;
13083;SDS011;6608;48.790;9.198;2023-05-07T14:30:19;173.30;;;66.13;;